Time;durP1;ratioP1;P1;durP2;ratioP2;P2;SDS_P1;SDS_P2;PMS_P1;PMS_P2;Temp;Humidity;BMP_temperature;BMP_pressure;BME280_temperature;BME280_humidity;BME280_pressure;Samples;Min_cycle;Max_cycle;Signal;HPM_P1;HPM_P2
2023/07/13 00:00:09;;;;;;;;;;;22.80;78.70;;;;;;2095514;28;19924;-72
2023/07/13 00:01:14;;;;;;;;;;;22.80;78.80;;;;;;2095658;28;19959;-72
2023/07/13 00:02:15;;;;;;;;;;;22.80;78.90;;;;;;2093092;28;19962;-72
2023/07/13 00:03:15;;;;;;;;;;;22.70;78.90;;;;;;2097006;28;19925;-72
2023/07/13 00:04:17;;;;;;;;;;;22.70;78.80;;;;;;2096153;28;19990;-75
2023/07/13 00:05:17;;;;;;;;;;;22.70;78.80;;;;;;2090813;28;19916;-73
2023/07/13 00:06:19;;;;;;;;;;;22.70;78.80;;;;;;2094462;28;20354;-73
2023/07/13 00:07:20;;;;;;;;;;;22.70;78.80;;;;;;2098309;28;19916;-73
2023/07/13 00:08:20;;;;;;;;;;;22.70;78.90;;;;;;2092741;28;19951;-71
2023/07/13 00:09:22;;;;;;;;;;;22.70;79.10;;;;;;2086022;28;19913;-72
2023/07/13 00:10:22;;;;;;;;;;;22.70;79.20;;;;;;2095568;28;19917;-72
2023/07/13 00:11:22;;;;;;;;;;;22.80;79.30;;;;;;2095784;28;20342;-74
2023/07/13 00:12:24;;;;;;;;;;;22.70;79.40;;;;;;2095662;28;19921;-73
2023/07/13 00:13:25;;;;;;;;;;;22.80;79.50;;;;;;2098009;28;19920;-73
2023/07/13 00:14:26;;;;;;;;;;;22.70;80.70;;;;;;2093624;28;19924;-73
2023/07/13 00:15:26;;;;;;;;;;;22.70;81.80;;;;;;2092142;28;19912;-74
2023/07/13 00:16:27;;;;;;;;;;;22.70;82.20;;;;;;2095955;28;19916;-73
2023/07/13 00:17:28;;;;;;;;;;;22.70;82.60;;;;;;2096599;28;19995;-72
2023/07/13 00:18:29;;;;;;;;;;;22.70;83.20;;;;;;2097003;28;19928;-72
2023/07/13 00:19:30;;;;;;;;;;;22.70;83.40;;;;;;2097212;28;19916;-74
2023/07/13 00:20:33;;;;;;;;;;;22.70;83.20;;;;;;2093451;28;19963;-73
2023/07/13 00:21:33;;;;;;;;;;;22.70;82.80;;;;;;2096993;28;19916;-72
2023/07/13 00:22:34;;;;;;;;;;;22.70;82.90;;;;;;2096995;28;19927;-72
2023/07/13 00:23:35;;;;;;;;;;;22.70;83.00;;;;;;2099922;28;19977;-72
2023/07/13 00:24:41;;;;;;;;;;;22.70;83.20;;;;;;2098236;28;19913;-72
2023/07/13 00:25:42;;;;;;;;;;;22.60;83.10;;;;;;2092924;28;20314;-72
2023/07/13 00:26:45;;;;;;;;;;;22.60;83.60;;;;;;2094444;28;20019;-72
2023/07/13 00:27:48;;;;;;;;;;;22.60;84.10;;;;;;2093962;28;20377;-72
2023/07/13 00:28:49;;;;;;;;;;;22.60;84.30;;;;;;2098738;28;19912;-72
2023/07/13 00:29:49;;;;;;;;;;;22.60;84.60;;;;;;2095889;28;20207;-74
2023/07/13 00:30:49;;;;;;;;;;;22.50;84.70;;;;;;2096885;28;20359;-72
2023/07/13 00:31:50;;;;;;;;;;;22.50;84.50;;;;;;2094569;28;19913;-72
2023/07/13 00:32:51;;;;;;;;;;;22.50;84.40;;;;;;2088366;28;19919;-71
2023/07/13 00:33:51;;;;;;;;;;;22.50;84.70;;;;;;2098839;28;19943;-71
2023/07/13 00:34:52;;;;;;;;;;;22.50;85.40;;;;;;2097811;28;20172;-72
2023/07/13 00:35:54;;;;;;;;;;;22.50;84.50;;;;;;2093718;28;20431;-73
2023/07/13 00:36:54;;;;;;;;;;;22.50;84.30;;;;;;2098559;28;20409;-71
2023/07/13 00:37:56;;;;;;;;;;;22.50;84.50;;;;;;2094412;28;19919;-71
2023/07/13 00:38:58;;;;;;;;;;;22.50;85.20;;;;;;2098722;28;19923;-72
2023/07/13 00:39:58;;;;;;;;;;;22.50;84.30;;;;;;2087953;28;20743;-71
2023/07/13 00:40:59;;;;;;;;;;;22.50;84.30;;;;;;2085185;28;20387;-72
2023/07/13 00:42:00;;;;;;;;;;;22.50;84.20;;;;;;2081864;28;19916;-71
2023/07/13 00:43:01;;;;;;;;;;;22.40;83.70;;;;;;2097611;28;19912;-70
2023/07/13 00:44:02;;;;;;;;;;;22.40;83.80;;;;;;2100008;28;19923;-71
2023/07/13 00:45:12;;;;;;;;;;;22.40;85.00;;;;;;2097732;28;19916;-71
2023/07/13 00:46:35;;;;;;;;;;;22.40;85.70;;;;;;2097439;28;19916;-71
2023/07/13 00:47:37;;;;;;;;;;;22.40;87.30;;;;;;2083234;28;19950;-71
2023/07/13 00:48:38;;;;;;;;;;;22.30;88.90;;;;;;2094738;28;19916;-71
2023/07/13 00:49:39;;;;;;;;;;;22.20;88.80;;;;;;2093070;28;20406;-71
2023/07/13 00:50:40;;;;;;;;;;;22.10;89.90;;;;;;2094184;28;19920;-71
2023/07/13 00:51:44;;;;;;;;;;;22.00;90.30;;;;;;2096969;28;20267;-71
2023/07/13 00:52:47;;;;;;;;;;;22.00;90.10;;;;;;2089365;28;20055;-71
2023/07/13 00:53:48;;;;;;;;;;;21.90;91.10;;;;;;2099116;28;19915;-73
2023/07/13 00:54:48;;;;;;;;;;;21.90;91.80;;;;;;2095910;28;20362;-73
2023/07/13 00:55:49;;;;;;;;;;;21.90;92.40;;;;;;2079629;28;19917;-72
2023/07/13 00:56:51;;;;;;;;;;;21.90;92.70;;;;;;2079702;28;19913;-72
2023/07/13 00:57:52;;;;;;;;;;;21.80;92.40;;;;;;2098342;28;19913;-73
2023/07/13 00:58:53;;;;;;;;;;;21.80;92.50;;;;;;2098384;28;19921;-73
2023/07/13 00:59:55;;;;;;;;;;;21.80;92.20;;;;;;2097533;28;19931;-71
2023/07/13 01:00:55;;;;;;;;;;;21.70;92.40;;;;;;2097212;28;19912;-72
2023/07/13 01:01:56;;;;;;;;;;;21.70;93.00;;;;;;2098676;28;19912;-73
2023/07/13 01:02:57;;;;;;;;;;;21.70;93.50;;;;;;2098114;28;19919;-73
2023/07/13 01:04:00;;;;;;;;;;;21.60;94.00;;;;;;2088695;28;20012;-72
2023/07/13 01:05:01;;;;;;;;;;;21.60;94.60;;;;;;2097291;28;20282;-73
2023/07/13 01:06:02;;;;;;;;;;;21.60;94.60;;;;;;2086668;28;20398;-72
2023/07/13 01:07:02;;;;;;;;;;;21.50;95.10;;;;;;2087634;28;19916;-72
2023/07/13 01:08:05;;;;;;;;;;;21.50;95.50;;;;;;2089795;28;20419;-72
2023/07/13 01:09:08;;;;;;;;;;;21.50;95.60;;;;;;2080525;28;19952;-71
2023/07/13 01:10:08;;;;;;;;;;;21.50;95.60;;;;;;2092949;28;19916;-71
2023/07/13 01:11:09;;;;;;;;;;;21.40;95.20;;;;;;2094173;28;19917;-72
2023/07/13 01:12:09;;;;;;;;;;;21.40;94.40;;;;;;2088387;28;20005;-72
2023/07/13 01:13:10;;;;;;;;;;;21.30;94.10;;;;;;2098674;28;19916;-74
2023/07/13 01:14:10;;;;;;;;;;;21.40;93.80;;;;;;2093442;28;19916;-71
2023/07/13 01:15:29;;;;;;;;;;;21.40;93.70;;;;;;2096357;28;20006;-71
2023/07/13 01:16:31;;;;;;;;;;;21.40;93.60;;;;;;2093345;28;19916;-71
2023/07/13 01:17:33;;;;;;;;;;;21.30;94.10;;;;;;2096188;28;19912;-71
2023/07/13 01:18:34;;;;;;;;;;;21.40;94.90;;;;;;2096280;28;19917;-71
2023/07/13 01:19:39;;;;;;;;;;;21.40;95.50;;;;;;2095358;28;20402;-74
2023/07/13 01:20:40;;;;;;;;;;;21.50;95.80;;;;;;2089656;28;19917;-72
2023/07/13 01:21:42;;;;;;;;;;;21.40;96.30;;;;;;2093817;28;19923;-72
2023/07/13 01:22:43;;;;;;;;;;;21.40;96.20;;;;;;2079351;28;20039;-72
2023/07/13 01:23:44;;;;;;;;;;;21.40;96.90;;;;;;2092670;28;19927;-71
2023/07/13 01:24:46;;;;;;;;;;;21.40;97.10;;;;;;2096898;28;20015;-72
2023/07/13 01:25:46;;;;;;;;;;;21.40;97.30;;;;;;2098205;28;19912;-72
2023/07/13 01:26:47;;;;;;;;;;;21.30;97.40;;;;;;2084623;28;19931;-71
2023/07/13 01:27:47;;;;;;;;;;;21.30;97.80;;;;;;2093364;28;19920;-73
2023/07/13 01:28:48;;;;;;;;;;;21.30;98.10;;;;;;2096628;28;19923;-72
2023/07/13 01:29:49;;;;;;;;;;;21.30;98.40;;;;;;2095651;28;19921;-72
2023/07/13 01:30:50;;;;;;;;;;;21.20;97.50;;;;;;2097626;28;20387;-73
2023/07/13 01:31:50;;;;;;;;;;;21.20;98.20;;;;;;2093964;28;19956;-72
2023/07/13 01:32:51;;;;;;;;;;;21.20;98.60;;;;;;2088598;28;19970;-72
2023/07/13 01:33:53;;;;;;;;;;;21.20;98.80;;;;;;2095227;28;20002;-72
2023/07/13 01:34:55;;;;;;;;;;;21.20;99.10;;;;;;2096705;28;19916;-71
2023/07/13 01:35:57;;;;;;;;;;;21.20;99.50;;;;;;2096619;28;20046;-72
2023/07/13 01:36:57;;;;;;;;;;;21.20;99.90;;;;;;2098900;28;19912;-73
2023/07/13 01:38:00;;;;;;;;;;;21.20;99.80;;;;;;2095334;28;20587;-71
2023/07/13 01:39:00;;;;;;;;;;;21.20;99.80;;;;;;2095359;28;19912;-72
2023/07/13 01:40:01;;;;;;;;;;;21.20;98.70;;;;;;2095224;28;19924;-72
2023/07/13 01:41:02;;;;;;;;;;;21.20;98.40;;;;;;2098726;28;19923;-72
2023/07/13 01:42:02;;;;;;;;;;;21.20;99.30;;;;;;2089984;28;19923;-72
2023/07/13 01:43:03;;;;;;;;;;;21.10;99.40;;;;;;2096515;28;19942;-72
2023/07/13 01:44:04;;;;;;;;;;;21.10;99.30;;;;;;2087168;28;19931;-72
2023/07/13 01:45:05;;;;;;;;;;;21.10;99.30;;;;;;2099310;28;19939;-72
2023/07/13 01:46:06;;;;;;;;;;;21.10;99.30;;;;;;2095244;28;19912;-72
2023/07/13 01:47:06;;;;;;;;;;;21.10;99.30;;;;;;2095495;28;19917;-71
2023/07/13 01:48:07;;;;;;;;;;;21.10;99.20;;;;;;2096071;28;19974;-72
2023/07/13 01:49:07;;;;;;;;;;;21.00;99.20;;;;;;2096318;28;19912;-71
2023/07/13 01:50:08;;;;;;;;;;;21.00;99.70;;;;;;2098355;28;19917;-73
2023/07/13 01:51:08;;;;;;;;;;;21.00;99.70;;;;;;2097430;28;19985;-71
2023/07/13 01:52:09;;;;;;;;;;;21.00;99.70;;;;;;2093602;28;19913;-72
2023/07/13 01:53:09;;;;;;;;;;;21.00;99.70;;;;;;2097358;28;19951;-71
2023/07/13 01:54:10;;;;;;;;;;;20.90;99.70;;;;;;2097480;28;19912;-74
2023/07/13 01:55:10;;;;;;;;;;;20.90;99.80;;;;;;2086996;28;19917;-72
2023/07/13 01:56:11;;;;;;;;;;;20.90;99.90;;;;;;2095355;28;19974;-71
2023/07/13 01:57:11;;;;;;;;;;;20.80;99.90;;;;;;2095629;28;20384;-72
2023/07/13 01:58:12;;;;;;;;;;;20.80;99.90;;;;;;2098309;28;19921;-71
2023/07/13 01:59:13;;;;;;;;;;;20.70;99.90;;;;;;2098306;28;19912;-71
2023/07/13 02:00:14;;;;;;;;;;;20.70;99.90;;;;;;2096469;28;19927;-72
2023/07/13 02:01:17;;;;;;;;;;;20.70;99.90;;;;;;2097418;28;19923;-71
2023/07/13 02:02:18;;;;;;;;;;;20.70;99.90;;;;;;2094897;28;20282;-70
2023/07/13 02:03:19;;;;;;;;;;;20.70;99.90;;;;;;2097120;28;19924;-71
2023/07/13 02:04:20;;;;;;;;;;;20.70;99.90;;;;;;2087898;28;20000;-73
2023/07/13 02:05:20;;;;;;;;;;;20.70;99.90;;;;;;2088081;28;19909;-72
2023/07/13 02:06:21;;;;;;;;;;;20.70;99.90;;;;;;2094446;28;19916;-73
2023/07/13 02:07:22;;;;;;;;;;;20.70;99.90;;;;;;2089989;28;20284;-72
2023/07/13 02:08:23;;;;;;;;;;;20.60;99.90;;;;;;2083603;28;20395;-72
2023/07/13 02:09:23;;;;;;;;;;;20.70;99.90;;;;;;2094659;28;19916;-72
2023/07/13 02:10:24;;;;;;;;;;;20.60;99.90;;;;;;2096697;28;19916;-72
2023/07/13 02:11:25;;;;;;;;;;;20.60;99.90;;;;;;2097961;28;20387;-72
2023/07/13 02:12:25;;;;;;;;;;;20.70;99.90;;;;;;2086720;28;19991;-72
2023/07/13 02:13:26;;;;;;;;;;;20.60;99.90;;;;;;2035087;28;1696915;-72
2023/07/13 02:14:26;;;;;;;;;;;20.60;99.90;;;;;;2096841;28;20389;-73
2023/07/13 02:15:27;;;;;;;;;;;20.50;99.90;;;;;;2096860;28;20001;-72
2023/07/13 02:16:27;;;;;;;;;;;20.50;99.90;;;;;;2098937;28;19959;-72
2023/07/13 02:17:28;;;;;;;;;;;20.50;99.90;;;;;;2097900;28;19927;-72
2023/07/13 02:18:28;;;;;;;;;;;20.50;99.90;;;;;;2097560;28;19960;-72
2023/07/13 02:19:29;;;;;;;;;;;20.50;99.90;;;;;;2097616;28;20029;-72
2023/07/13 02:20:29;;;;;;;;;;;20.40;99.90;;;;;;2093369;28;20283;-72
2023/07/13 02:21:30;;;;;;;;;;;20.40;99.90;;;;;;2095116;28;19913;-72
2023/07/13 02:22:30;;;;;;;;;;;20.40;99.90;;;;;;2095496;28;20007;-71
2023/07/13 02:23:31;;;;;;;;;;;20.40;99.90;;;;;;2095173;28;19967;-71
2023/07/13 02:24:32;;;;;;;;;;;20.50;99.90;;;;;;2094390;28;20290;-71
2023/07/13 02:25:32;;;;;;;;;;;20.40;99.90;;;;;;2097558;28;19916;-71
2023/07/13 02:26:33;;;;;;;;;;;20.40;99.90;;;;;;2096809;28;19912;-71
2023/07/13 02:27:33;;;;;;;;;;;20.40;99.90;;;;;;2094675;28;19923;-73
2023/07/13 02:28:34;;;;;;;;;;;20.40;99.90;;;;;;2098671;28;20368;-71
2023/07/13 02:29:34;;;;;;;;;;;20.40;99.90;;;;;;2095176;28;20402;-71
2023/07/13 02:30:35;;;;;;;;;;;20.40;99.90;;;;;;2095374;28;20207;-74
2023/07/13 02:31:35;;;;;;;;;;;20.40;99.90;;;;;;2095343;28;19915;-72
2023/07/13 02:32:36;;;;;;;;;;;20.30;99.90;;;;;;2088180;28;20338;-71
2023/07/13 02:33:36;;;;;;;;;;;20.30;99.90;;;;;;2098400;28;19967;-72
2023/07/13 02:34:37;;;;;;;;;;;20.30;99.90;;;;;;2092050;28;19944;-71
2023/07/13 02:35:38;;;;;;;;;;;20.40;99.90;;;;;;2092947;28;19908;-72
2023/07/13 02:36:39;;;;;;;;;;;20.40;99.90;;;;;;2097523;28;19916;-71
2023/07/13 02:37:40;;;;;;;;;;;20.40;99.90;;;;;;2098083;28;19969;-72
2023/07/13 02:38:41;;;;;;;;;;;20.40;99.90;;;;;;2081006;28;19920;-71
2023/07/13 02:39:42;;;;;;;;;;;20.40;99.90;;;;;;2091805;28;20361;-73
2023/07/13 02:40:42;;;;;;;;;;;20.40;99.90;;;;;;2090661;28;19967;-71
2023/07/13 02:41:43;;;;;;;;;;;20.40;99.90;;;;;;2098220;28;19919;-71
2023/07/13 02:42:43;;;;;;;;;;;20.40;99.90;;;;;;2089578;28;20186;-70
2023/07/13 02:43:43;;;;;;;;;;;20.40;99.90;;;;;;2092246;28;20333;-71
2023/07/13 02:44:44;;;;;;;;;;;20.30;99.90;;;;;;2097756;28;19920;-72
2023/07/13 02:45:45;;;;;;;;;;;20.30;99.90;;;;;;2088875;28;19970;-72
2023/07/13 02:46:45;;;;;;;;;;;20.40;99.90;;;;;;2095276;28;19923;-72
2023/07/13 02:47:48;;;;;;;;;;;20.30;99.90;;;;;;2095644;28;20296;-73
2023/07/13 02:48:48;;;;;;;;;;;20.30;99.90;;;;;;2087332;28;19919;-72
2023/07/13 02:49:48;;;;;;;;;;;20.40;99.90;;;;;;2094792;28;20391;-72
2023/07/13 02:50:49;;;;;;;;;;;20.40;99.90;;;;;;2090327;28;19963;-72
2023/07/13 02:51:50;;;;;;;;;;;20.40;99.90;;;;;;2094486;28;20207;-72
2023/07/13 02:52:51;;;;;;;;;;;20.40;99.90;;;;;;2093048;28;19912;-72
2023/07/13 02:53:52;;;;;;;;;;;20.40;99.90;;;;;;2097278;28;20110;-72
2023/07/13 02:54:52;;;;;;;;;;;20.40;99.90;;;;;;2093757;28;19920;-73
2023/07/13 02:55:53;;;;;;;;;;;20.40;99.90;;;;;;2086625;28;20401;-71
2023/07/13 02:56:53;;;;;;;;;;;20.40;99.90;;;;;;2095359;28;19916;-72
2023/07/13 02:57:54;;;;;;;;;;;20.40;99.90;;;;;;2098618;28;20000;-71
2023/07/13 02:58:55;;;;;;;;;;;20.40;99.90;;;;;;2092607;28;19959;-72
2023/07/13 02:59:55;;;;;;;;;;;20.40;99.90;;;;;;2098107;28;19916;-72
2023/07/13 03:00:57;;;;;;;;;;;20.40;99.90;;;;;;2100786;28;20308;-73
2023/07/13 03:01:58;;;;;;;;;;;20.40;99.90;;;;;;2102612;28;19918;-71
2023/07/13 03:03:00;;;;;;;;;;;20.40;99.90;;;;;;2094500;28;19916;-73
2023/07/13 03:04:00;;;;;;;;;;;20.40;99.90;;;;;;2084114;28;19916;-73
2023/07/13 03:05:01;;;;;;;;;;;20.40;99.90;;;;;;2082551;28;19913;-74
2023/07/13 03:06:03;;;;;;;;;;;20.40;99.90;;;;;;2091386;28;19923;-70
2023/07/13 03:07:09;;;;;;;;;;;20.40;99.90;;;;;;2088142;28;19913;-73
2023/07/13 03:08:11;;;;;;;;;;;20.30;99.90;;;;;;2087076;28;19967;-72
2023/07/13 03:09:13;;;;;;;;;;;20.30;99.90;;;;;;2091609;28;19917;-72
2023/07/13 03:10:17;;;;;;;;;;;20.30;99.90;;;;;;2093473;28;19955;-72
2023/07/13 03:11:22;;;;;;;;;;;20.20;99.90;;;;;;2087936;28;19989;-75
2023/07/13 03:12:28;;;;;;;;;;;20.20;99.90;;;;;;2079987;28;19917;-71
2023/07/13 03:13:29;;;;;;;;;;;20.20;99.90;;;;;;2087863;28;20256;-71
2023/07/13 03:14:30;;;;;;;;;;;20.20;99.90;;;;;;2098092;28;19966;-72
2023/07/13 03:15:31;;;;;;;;;;;20.20;99.90;;;;;;2100458;28;19915;-72
2023/07/13 03:16:32;;;;;;;;;;;20.20;99.90;;;;;;2092754;28;19913;-71
2023/07/13 03:17:33;;;;;;;;;;;20.10;99.90;;;;;;2084344;28;20664;-71
2023/07/13 03:18:35;;;;;;;;;;;20.10;99.90;;;;;;2086351;28;20445;-72
2023/07/13 03:19:39;;;;;;;;;;;20.10;99.90;;;;;;2097200;28;19944;-73
2023/07/13 03:20:39;;;;;;;;;;;20.10;99.90;;;;;;2089136;28;19970;-71
2023/07/13 03:21:39;;;;;;;;;;;20.10;99.90;;;;;;2092266;28;19917;-74
2023/07/13 03:22:40;;;;;;;;;;;20.10;99.90;;;;;;2096431;28;20033;-71
2023/07/13 03:23:41;;;;;;;;;;;20.00;99.90;;;;;;2095023;28;20023;-72
2023/07/13 03:24:42;;;;;;;;;;;20.00;99.90;;;;;;2096088;28;20147;-70
2023/07/13 03:25:44;;;;;;;;;;;20.00;99.90;;;;;;2097243;28;19916;-73
2023/07/13 03:26:45;;;;;;;;;;;20.00;99.90;;;;;;2095369;28;19916;-73
2023/07/13 03:27:45;;;;;;;;;;;20.00;99.90;;;;;;2094799;28;19916;-72
2023/07/13 03:28:46;;;;;;;;;;;20.00;99.90;;;;;;2088480;28;19932;-73
2023/07/13 03:29:51;;;;;;;;;;;20.00;99.90;;;;;;2090037;28;20287;-73
2023/07/13 03:31:03;;;;;;;;;;;20.00;99.90;;;;;;2087929;28;19956;-73
2023/07/13 03:32:06;;;;;;;;;;;20.00;99.90;;;;;;2087501;28;20391;-72
2023/07/13 03:33:07;;;;;;;;;;;20.00;99.90;;;;;;2076210;28;19917;-72
2023/07/13 03:34:08;;;;;;;;;;;19.90;99.90;;;;;;2092636;28;19921;-72
2023/07/13 03:35:10;;;;;;;;;;;19.90;99.90;;;;;;2094100;28;19912;-72
2023/07/13 03:36:14;;;;;;;;;;;19.90;99.90;;;;;;2096231;28;19956;-71
2023/07/13 03:37:14;;;;;;;;;;;20.00;99.90;;;;;;2088270;28;19916;-71
2023/07/13 03:38:15;;;;;;;;;;;19.90;99.90;;;;;;2096967;28;20323;-72
2023/07/13 03:39:15;;;;;;;;;;;19.90;99.90;;;;;;2089985;28;19916;-71
2023/07/13 03:40:27;;;;;;;;;;;19.90;99.90;;;;;;2095713;28;19916;-71
2023/07/13 03:41:27;;;;;;;;;;;19.90;99.90;;;;;;2095424;28;19919;-71
2023/07/13 03:42:29;;;;;;;;;;;19.90;99.90;;;;;;2094786;28;19916;-71
2023/07/13 03:43:30;;;;;;;;;;;19.90;99.90;;;;;;2095092;28;20031;-70
2023/07/13 03:44:30;;;;;;;;;;;19.90;99.90;;;;;;2098639;28;19970;-73
2023/07/13 03:45:31;;;;;;;;;;;19.90;99.90;;;;;;2088851;28;19945;-72
2023/07/13 03:46:33;;;;;;;;;;;19.90;99.90;;;;;;2089911;28;20333;-71
2023/07/13 03:47:33;;;;;;;;;;;20.00;99.90;;;;;;2096287;28;19924;-71
2023/07/13 03:48:39;;;;;;;;;;;19.90;99.90;;;;;;2096306;28;20018;-69
2023/07/13 03:49:40;;;;;;;;;;;20.00;99.90;;;;;;2089108;28;19917;-72
2023/07/13 03:50:40;;;;;;;;;;;20.00;99.90;;;;;;2089958;28;19916;-71
2023/07/13 03:51:41;;;;;;;;;;;20.00;99.90;;;;;;2091375;28;19920;-71
2023/07/13 03:52:41;;;;;;;;;;;20.00;99.90;;;;;;2083705;28;20233;-71
2023/07/13 03:53:43;;;;;;;;;;;20.00;99.90;;;;;;2092816;28;19916;-73
2023/07/13 03:54:44;;;;;;;;;;;20.00;99.90;;;;;;2076582;28;19913;-71
2023/07/13 03:55:45;;;;;;;;;;;20.00;99.90;;;;;;2082912;28;19913;-71
2023/07/13 03:56:46;;;;;;;;;;;20.00;99.90;;;;;;2083069;28;19921;-71
2023/07/13 03:57:48;;;;;;;;;;;20.00;99.90;;;;;;2097939;28;19916;-71
2023/07/13 03:58:49;;;;;;;;;;;20.00;99.90;;;;;;2084928;28;19938;-71
2023/07/13 03:59:54;;;;;;;;;;;20.10;99.90;;;;;;2089344;28;20386;-72
2023/07/13 04:00:55;;;;;;;;;;;20.00;99.90;;;;;;2087554;28;20141;-72
2023/07/13 04:01:55;;;;;;;;;;;20.10;99.90;;;;;;2095070;28;19917;-72
2023/07/13 04:02:56;;;;;;;;;;;20.10;99.90;;;;;;2093812;28;19916;-71
2023/07/13 04:03:57;;;;;;;;;;;20.10;99.90;;;;;;2088849;28;19924;-71
2023/07/13 04:04:58;;;;;;;;;;;20.10;99.90;;;;;;2086670;28;20236;-71
2023/07/13 04:06:00;;;;;;;;;;;20.10;99.90;;;;;;2092192;28;20337;-72
2023/07/13 04:07:00;;;;;;;;;;;20.10;99.90;;;;;;2096137;28;19923;-71
2023/07/13 04:08:01;;;;;;;;;;;20.10;99.90;;;;;;2096786;28;19912;-71
2023/07/13 04:09:05;;;;;;;;;;;20.10;99.90;;;;;;2088970;28;19966;-71
2023/07/13 04:10:05;;;;;;;;;;;20.20;99.90;;;;;;2095853;28;19955;-71
2023/07/13 04:11:06;;;;;;;;;;;20.20;99.90;;;;;;2092108;28;19924;-72
2023/07/13 04:12:07;;;;;;;;;;;20.20;99.90;;;;;;2084569;28;19917;-71
2023/07/13 04:13:07;;;;;;;;;;;20.20;99.90;;;;;;2097196;28;19952;-71
2023/07/13 04:14:08;;;;;;;;;;;20.20;99.90;;;;;;2091390;28;19971;-71
2023/07/13 04:15:09;;;;;;;;;;;20.20;99.90;;;;;;2092291;28;19975;-73
2023/07/13 04:16:09;;;;;;;;;;;20.30;99.90;;;;;;2094844;28;19920;-71
2023/07/13 04:17:10;;;;;;;;;;;20.30;99.90;;;;;;2093911;28;19919;-73
2023/07/13 04:18:10;;;;;;;;;;;20.40;99.90;;;;;;2089421;28;20436;-74
2023/07/13 04:19:11;;;;;;;;;;;20.40;99.90;;;;;;2092188;28;19920;-73
2023/07/13 04:20:11;;;;;;;;;;;20.40;99.90;;;;;;2094706;28;19917;-72
2023/07/13 04:21:12;;;;;;;;;;;20.60;99.90;;;;;;2095065;28;19912;-73
2023/07/13 04:22:13;;;;;;;;;;;20.80;99.90;;;;;;2092853;28;19920;-72
2023/07/13 04:23:13;;;;;;;;;;;20.90;99.90;;;;;;2095504;28;19916;-73
2023/07/13 04:24:14;;;;;;;;;;;21.10;99.90;;;;;;2089100;28;19927;-73
2023/07/13 04:25:14;;;;;;;;;;;21.30;99.90;;;;;;2086555;28;19913;-73
2023/07/13 04:26:15;;;;;;;;;;;21.40;99.90;;;;;;2096160;28;20453;-73
2023/07/13 04:27:15;;;;;;;;;;;21.60;99.90;;;;;;2097716;28;20447;-71
2023/07/13 04:28:17;;;;;;;;;;;21.60;99.90;;;;;;2091934;28;19917;-74
2023/07/13 04:29:18;;;;;;;;;;;21.70;99.90;;;;;;2093929;28;19966;-68
2023/07/13 04:30:18;;;;;;;;;;;21.60;99.90;;;;;;2095395;28;19990;-75
2023/07/13 04:31:19;;;;;;;;;;;21.60;99.90;;;;;;2092495;28;19960;-68
2023/07/13 04:32:20;;;;;;;;;;;21.40;99.90;;;;;;2089813;28;19999;-72
2023/07/13 04:33:23;;;;;;;;;;;21.40;99.90;;;;;;2096720;28;19925;-71
2023/07/13 04:34:24;;;;;;;;;;;21.30;99.90;;;;;;2092330;28;19966;-72
2023/07/13 04:35:24;;;;;;;;;;;21.20;99.90;;;;;;2096207;28;19977;-72
2023/07/13 04:36:26;;;;;;;;;;;21.10;99.90;;;;;;2093235;28;19967;-73
2023/07/13 04:37:27;;;;;;;;;;;21.00;99.90;;;;;;2089405;28;20382;-73
2023/07/13 04:38:28;;;;;;;;;;;20.80;99.90;;;;;;2095134;28;19912;-73
2023/07/13 04:39:29;;;;;;;;;;;20.80;99.90;;;;;;2094055;28;20371;-74
2023/07/13 04:40:29;;;;;;;;;;;20.80;99.90;;;;;;2093690;28;19912;-74
2023/07/13 04:41:30;;;;;;;;;;;20.70;99.90;;;;;;2093844;28;20288;-73
2023/07/13 04:42:31;;;;;;;;;;;20.60;99.90;;;;;;2095717;28;20290;-74
2023/07/13 04:43:31;;;;;;;;;;;20.60;99.90;;;;;;2095640;28;19931;-73
2023/07/13 04:44:32;;;;;;;;;;;20.60;99.90;;;;;;2095657;28;20471;-73
2023/07/13 04:45:34;;;;;;;;;;;20.60;99.90;;;;;;2095561;28;19923;-73
2023/07/13 04:46:35;;;;;;;;;;;20.60;99.90;;;;;;2095083;28;20015;-73
2023/07/13 04:47:35;;;;;;;;;;;20.60;99.90;;;;;;2098293;28;19924;-74
2023/07/13 04:48:36;;;;;;;;;;;20.50;99.90;;;;;;2096867;28;20837;-73
2023/07/13 04:49:36;;;;;;;;;;;20.50;99.90;;;;;;2096617;28;20421;-73
2023/07/13 04:50:37;;;;;;;;;;;20.50;99.90;;;;;;2093082;28;19909;-72
2023/07/13 04:51:38;;;;;;;;;;;20.50;99.90;;;;;;2097698;28;19913;-72
2023/07/13 04:52:38;;;;;;;;;;;20.50;99.90;;;;;;2095585;28;20108;-72
2023/07/13 04:53:38;;;;;;;;;;;20.50;99.90;;;;;;2095333;28;19912;-71
2023/07/13 04:54:39;;;;;;;;;;;20.50;99.90;;;;;;2095312;28;20312;-71
2023/07/13 04:55:40;;;;;;;;;;;20.50;99.90;;;;;;2095058;28;19923;-71
2023/07/13 04:56:41;;;;;;;;;;;20.60;99.90;;;;;;2097403;28;19916;-72
2023/07/13 04:57:41;;;;;;;;;;;20.60;99.90;;;;;;2096006;28;19916;-72
2023/07/13 04:58:42;;;;;;;;;;;20.70;99.90;;;;;;2092862;28;19912;-70
2023/07/13 04:59:42;;;;;;;;;;;20.80;99.90;;;;;;2096515;28;19919;-72
2023/07/13 05:00:43;;;;;;;;;;;20.90;99.90;;;;;;2097205;28;19916;-71
2023/07/13 05:01:43;;;;;;;;;;;21.00;99.90;;;;;;2096308;28;19959;-71
2023/07/13 05:02:45;;;;;;;;;;;21.20;99.90;;;;;;2094685;28;19916;-70
2023/07/13 05:03:46;;;;;;;;;;;21.40;99.90;;;;;;2095218;28;19972;-71
2023/07/13 05:04:47;;;;;;;;;;;21.60;99.90;;;;;;2095313;28;19916;-70
2023/07/13 05:06:04;;;;;;;;;;;22.00;99.90;;;;;;2097820;28;19912;-71
2023/07/13 05:07:06;;;;;;;;;;;22.30;99.90;;;;;;2090641;28;19919;-71
2023/07/13 05:08:07;;;;;;;;;;;22.80;99.90;;;;;;2096943;28;20131;-71
2023/07/13 05:09:07;;;;;;;;;;;23.20;99.90;;;;;;2097097;28;19924;-71
2023/07/13 05:10:08;;;;;;;;;;;23.30;99.90;;;;;;2093605;28;19967;-71
2023/07/13 05:11:09;;;;;;;;;;;23.50;99.90;;;;;;2098273;28;19950;-73
2023/07/13 05:12:10;;;;;;;;;;;23.70;99.90;;;;;;2094440;28;20264;-71
2023/07/13 05:13:11;;;;;;;;;;;23.80;99.20;;;;;;2098104;28;20458;-71
2023/07/13 05:14:11;;;;;;;;;;;23.80;99.00;;;;;;2088081;28;19927;-73
2023/07/13 05:15:12;;;;;;;;;;;23.80;98.30;;;;;;2087929;28;20632;-72
2023/07/13 05:16:12;;;;;;;;;;;23.80;97.90;;;;;;2095816;28;19947;-72
2023/07/13 05:17:13;;;;;;;;;;;23.80;97.80;;;;;;2096545;28;19912;-71
2023/07/13 05:18:13;;;;;;;;;;;23.70;97.60;;;;;;2098956;28;20290;-72
2023/07/13 05:19:14;;;;;;;;;;;23.60;97.50;;;;;;2092647;28;20341;-72
2023/07/13 05:20:15;;;;;;;;;;;23.80;96.90;;;;;;2093086;28;19927;-72
2023/07/13 05:21:16;;;;;;;;;;;23.80;96.40;;;;;;2099395;28;19912;-71
2023/07/13 05:22:16;;;;;;;;;;;23.80;95.90;;;;;;2092836;28;19916;-70
2023/07/13 05:23:17;;;;;;;;;;;23.70;95.90;;;;;;2095831;28;19920;-71
2023/07/13 05:24:18;;;;;;;;;;;23.60;95.80;;;;;;2096436;28;19922;-71
2023/07/13 05:25:19;;;;;;;;;;;23.40;96.70;;;;;;2096621;28;20471;-71
2023/07/13 05:26:20;;;;;;;;;;;23.30;97.10;;;;;;2098892;28;19912;-70
2023/07/13 05:27:20;;;;;;;;;;;23.20;97.60;;;;;;2098037;28;19913;-73
2023/07/13 05:28:21;;;;;;;;;;;23.00;97.80;;;;;;2094351;28;19923;-71
2023/07/13 05:29:22;;;;;;;;;;;22.90;98.10;;;;;;2098242;28;20485;-71
2023/07/13 05:30:22;;;;;;;;;;;22.80;98.30;;;;;;2099847;28;19922;-73
2023/07/13 05:31:23;;;;;;;;;;;22.80;98.10;;;;;;2097220;28;19912;-72
2023/07/13 05:32:23;;;;;;;;;;;22.70;98.40;;;;;;2096607;28;20366;-71
2023/07/13 05:33:24;;;;;;;;;;;22.70;98.10;;;;;;2096193;28;19923;-72
2023/07/13 05:34:26;;;;;;;;;;;22.60;98.50;;;;;;2099011;28;19961;-73
2023/07/13 05:35:27;;;;;;;;;;;22.50;99.40;;;;;;2098068;28;20003;-71
2023/07/13 05:36:27;;;;;;;;;;;22.50;99.20;;;;;;2093056;28;19916;-71
2023/07/13 05:37:28;;;;;;;;;;;22.40;99.60;;;;;;2097624;28;19927;-73
2023/07/13 05:38:28;;;;;;;;;;;22.40;99.70;;;;;;2098932;28;19935;-72
2023/07/13 05:39:29;;;;;;;;;;;22.30;99.90;;;;;;2093992;28;20136;-72
2023/07/13 05:40:30;;;;;;;;;;;22.40;99.90;;;;;;2095411;28;19935;-71
2023/07/13 05:41:30;;;;;;;;;;;22.50;99.90;;;;;;2095923;28;19942;-71
2023/07/13 05:42:31;;;;;;;;;;;22.60;99.80;;;;;;2095742;28;19951;-73
2023/07/13 05:43:32;;;;;;;;;;;22.70;99.40;;;;;;2097987;28;20437;-70
2023/07/13 05:44:32;;;;;;;;;;;22.80;99.20;;;;;;2099265;28;19955;-71
2023/07/13 05:45:33;;;;;;;;;;;23.00;99.00;;;;;;2097583;28;19935;-72
2023/07/13 05:46:33;;;;;;;;;;;23.20;98.50;;;;;;2095317;28;19916;-72
2023/07/13 05:47:34;;;;;;;;;;;23.40;97.90;;;;;;2098791;28;19912;-71
2023/07/13 05:48:34;;;;;;;;;;;23.60;97.20;;;;;;2096589;28;19923;-72
2023/07/13 05:49:35;;;;;;;;;;;23.70;96.60;;;;;;2096861;28;20366;-72
2023/07/13 05:50:35;;;;;;;;;;;23.80;96.10;;;;;;2096108;28;19915;-72
2023/07/13 05:51:36;;;;;;;;;;;24.00;95.80;;;;;;2096426;28;19920;-74
2023/07/13 05:52:37;;;;;;;;;;;24.30;95.30;;;;;;2095766;28;19994;-76
2023/07/13 05:53:37;;;;;;;;;;;24.40;94.50;;;;;;2098537;28;20465;-76
2023/07/13 05:54:38;;;;;;;;;;;24.60;93.90;;;;;;2097897;28;19927;-76
2023/07/13 05:55:42;;;;;;;;;;;24.80;93.40;;;;;;2098006;28;20328;-77